sensor_id;sensor_type;location;lat;lon;timestamp;pressure;altitude;pressure_sealevel;temperature;humidity
69027;BME280;56080;47.594;19.116;2023-02-04T00:06:57;99882;;;4.97;81.48
69027;BME280;56080;47.594;19.116;2023-02-04T00:16:57;99871;;;5.03;81.28
69027;BME280;56080;47.594;19.116;2023-02-04T00:26:59;99882;;;5.00;81.84
69027;BME280;56080;47.594;19.116;2023-02-04T00:36:58;99882;;;4.92;82.63
69027;BME280;56080;47.594;19.116;2023-02-04T00:46:59;99862;;;4.85;83.23
69027;BME280;56080;47.594;19.116;2023-02-04T00:57:00;99824;;;4.89;83.23
69027;BME280;56080;47.594;19.116;2023-02-04T01:07:00;99813;;;5.09;82.21
69027;BME280;56080;47.594;19.116;2023-02-04T01:17:00;99827;;;5.19;81.29
69027;BME280;56080;47.594;19.116;2023-02-04T01:27:02;99827;;;5.24;80.41
69027;BME280;56080;47.594;19.116;2023-02-04T01:37:01;99825;;;5.21;80.66
69027;BME280;56080;47.594;19.116;2023-02-04T01:47:02;99809;;;5.17;81.11
69027;BME280;56080;47.594;19.116;2023-02-04T01:57:02;99802;;;5.13;81.45
69027;BME280;56080;47.594;19.116;2023-02-04T02:07:03;99808;;;5.23;80.41
69027;BME280;56080;47.594;19.116;2023-02-04T02:27:05;99799;;;5.19;80.48
69027;BME280;56080;47.594;19.116;2023-02-04T02:37:04;99793;;;5.26;81.57
69027;BME280;56080;47.594;19.116;2023-02-04T02:47:05;99769;;;5.18;82.68
69027;BME280;56080;47.594;19.116;2023-02-04T02:57:09;99734;;;5.23;82.53
69027;BME280;56080;47.594;19.116;2023-02-04T03:07:06;99753;;;5.22;82.36
69027;BME280;56080;47.594;19.116;2023-02-04T03:17:07;99756;;;5.26;82.87
69027;BME280;56080;47.594;19.116;2023-02-04T03:27:07;99765;;;5.19;84.88
69027;BME280;56080;47.594;19.116;2023-02-04T03:37:07;99752;;;5.12;86.12
69027;BME280;56080;47.594;19.116;2023-02-04T03:47:08;99759;;;4.96;87.43
69027;BME280;56080;47.594;19.116;2023-02-04T03:57:09;99739;;;4.87;88.94
69027;BME280;56080;47.594;19.116;2023-02-04T04:07:08;99747;;;4.88;90.15
69027;BME280;56080;47.594;19.116;2023-02-04T04:17:09;99758;;;4.84;89.96
69027;BME280;56080;47.594;19.116;2023-02-04T04:27:10;99723;;;4.89;88.94
69027;BME280;56080;47.594;19.116;2023-02-04T04:37:10;99740;;;5.02;87.90
69027;BME280;56080;47.594;19.116;2023-02-04T04:47:10;99708;;;5.10;85.67
69027;BME280;56080;47.594;19.116;2023-02-04T04:57:11;99712;;;5.22;83.93
69027;BME280;56080;47.594;19.116;2023-02-04T05:07:11;99690;;;5.31;81.98
69027;BME280;56080;47.594;19.116;2023-02-04T05:17:12;99697;;;5.30;82.18
69027;BME280;56080;47.594;19.116;2023-02-04T05:27:12;99707;;;5.22;82.83
69027;BME280;56080;47.594;19.116;2023-02-04T05:37:14;99734;;;5.27;82.73
69027;BME280;56080;47.594;19.116;2023-02-04T05:47:14;99708;;;5.13;83.43
69027;BME280;56080;47.594;19.116;2023-02-04T05:57:14;99729;;;5.09;83.33
69027;BME280;56080;47.594;19.116;2023-02-04T06:07:14;99726;;;4.94;80.28
69027;BME280;56080;47.594;19.116;2023-02-04T06:17:15;99756;;;4.78;78.62
69027;BME280;56080;47.594;19.116;2023-02-04T06:37:16;99813;;;4.43;77.64
69027;BME280;56080;47.594;19.116;2023-02-04T06:47:16;99811;;;4.30;77.03
69027;BME280;56080;47.594;19.116;2023-02-04T06:57:16;99801;;;4.21;75.53
69027;BME280;56080;47.594;19.116;2023-02-04T07:17:17;99874;;;4.26;72.95
69027;BME280;56080;47.594;19.116;2023-02-04T07:27:17;99874;;;3.94;72.48
69027;BME280;56080;47.594;19.116;2023-02-04T07:37:19;99899;;;3.76;72.38
69027;BME280;56080;47.594;19.116;2023-02-04T07:47:18;99892;;;3.73;71.11
69027;BME280;56080;47.594;19.116;2023-02-04T07:57:21;99912;;;4.62;68.18
69027;BME280;56080;47.594;19.116;2023-02-04T08:07:19;99949;;;5.41;64.36
69027;BME280;56080;47.594;19.116;2023-02-04T08:17:20;99992;;;5.97;62.08
69027;BME280;56080;47.594;19.116;2023-02-04T08:27:20;100028;;;5.51;61.64
69027;BME280;56080;47.594;19.116;2023-02-04T08:37:20;100062;;;5.71;60.76
69027;BME280;56080;47.594;19.116;2023-02-04T08:47:21;100080;;;6.68;57.93
69027;BME280;56080;47.594;19.116;2023-02-04T08:57:22;100100;;;6.51;55.43
69027;BME280;56080;47.594;19.116;2023-02-04T09:07:22;100140;;;6.86;54.60
69027;BME280;56080;47.594;19.116;2023-02-04T09:17:23;100148;;;6.62;55.21
69027;BME280;56080;47.594;19.116;2023-02-04T09:27:24;100175;;;7.45;52.09
69027;BME280;56080;47.594;19.116;2023-02-04T09:37:25;100201;;;7.58;50.02
69027;BME280;56080;47.594;19.116;2023-02-04T09:47:25;100272;;;6.24;53.45
69027;BME280;56080;47.594;19.116;2023-02-04T09:57:26;100320;;;5.36;53.12
69027;BME280;56080;47.594;19.116;2023-02-04T10:07:27;100350;;;4.85;50.78
69027;BME280;56080;47.594;19.116;2023-02-04T10:17:27;100365;;;4.79;51.38
69027;BME280;56080;47.594;19.116;2023-02-04T10:27:27;100410;;;5.08;50.52
69027;BME280;56080;47.594;19.116;2023-02-04T10:37:28;100420;;;5.46;49.75
69027;BME280;56080;47.594;19.116;2023-02-04T10:47:29;100430;;;5.69;49.00
69027;BME280;56080;47.594;19.116;2023-02-04T10:57:28;100474;;;5.76;47.96
69027;BME280;56080;47.594;19.116;2023-02-04T11:07:29;100523;;;5.73;49.25
69027;BME280;56080;47.594;19.116;2023-02-04T11:17:31;100543;;;5.49;49.07
69027;BME280;56080;47.594;19.116;2023-02-04T11:27:38;100562;;;5.48;48.51
69027;BME280;56080;47.594;19.116;2023-02-04T11:37:37;100626;;;5.09;47.73
69027;BME280;56080;47.594;19.116;2023-02-04T11:47:34;100669;;;4.86;46.14
69027;BME280;56080;47.594;19.116;2023-02-04T11:57:36;100696;;;5.27;44.88
69027;BME280;56080;47.594;19.116;2023-02-04T12:07:32;100700;;;5.25;44.44
69027;BME280;56080;47.594;19.116;2023-02-04T12:17:32;100724;;;5.00;44.73
69027;BME280;56080;47.594;19.116;2023-02-04T12:27:32;100746;;;5.06;44.97
69027;BME280;56080;47.594;19.116;2023-02-04T12:37:33;100724;;;5.01;43.47
69027;BME280;56080;47.594;19.116;2023-02-04T12:47:33;100773;;;5.02;43.33
69027;BME280;56080;47.594;19.116;2023-02-04T12:57:34;100819;;;4.98;42.63
69027;BME280;56080;47.594;19.116;2023-02-04T13:07:34;100828;;;4.80;43.11
69027;BME280;56080;47.594;19.116;2023-02-04T13:17:34;100868;;;4.82;44.87
69027;BME280;56080;47.594;19.116;2023-02-04T13:27:35;100911;;;5.15;44.53
69027;BME280;56080;47.594;19.116;2023-02-04T13:47:35;100937;;;4.68;43.86
69027;BME280;56080;47.594;19.116;2023-02-04T13:57:36;100942;;;4.37;42.98
69027;BME280;56080;47.594;19.116;2023-02-04T14:07:36;100957;;;3.92;42.13
69027;BME280;56080;47.594;19.116;2023-02-04T14:17:36;100992;;;3.91;41.85
69027;BME280;56080;47.594;19.116;2023-02-04T14:27:40;101007;;;3.62;40.98
69027;BME280;56080;47.594;19.116;2023-02-04T14:37:36;101001;;;3.47;41.61
69027;BME280;56080;47.594;19.116;2023-02-04T14:47:37;101037;;;3.32;43.50
69027;BME280;56080;47.594;19.116;2023-02-04T14:57:37;101055;;;3.10;45.75
69027;BME280;56080;47.594;19.116;2023-02-04T15:07:38;101059;;;2.81;43.99
69027;BME280;56080;47.594;19.116;2023-02-04T15:17:37;101102;;;2.64;44.61
69027;BME280;56080;47.594;19.116;2023-02-04T15:27:37;101143;;;2.51;44.87
69027;BME280;56080;47.594;19.116;2023-02-04T15:37:38;101161;;;2.28;44.58
69027;BME280;56080;47.594;19.116;2023-02-04T15:47:38;101183;;;2.31;43.68
69027;BME280;56080;47.594;19.116;2023-02-04T15:57:38;101155;;;2.01;44.05
69027;BME280;56080;47.594;19.116;2023-02-04T16:07:38;101260;;;1.97;44.63
69027;BME280;56080;47.594;19.116;2023-02-04T16:17:38;101275;;;1.77;43.03
69027;BME280;56080;47.594;19.116;2023-02-04T16:27:38;101300;;;1.96;43.39
69027;BME280;56080;47.594;19.116;2023-02-04T16:37:40;101324;;;1.93;45.64
69027;BME280;56080;47.594;19.116;2023-02-04T16:47:39;101332;;;1.72;45.23
69027;BME280;56080;47.594;19.116;2023-02-04T17:07:38;101288;;;1.43;45.86
69027;BME280;56080;47.594;19.116;2023-02-04T17:17:39;101347;;;1.43;46.94
69027;BME280;56080;47.594;19.116;2023-02-04T17:27:39;101370;;;1.37;46.74
69027;BME280;56080;47.594;19.116;2023-02-04T17:37:39;101387;;;1.25;46.51
69027;BME280;56080;47.594;19.116;2023-02-04T17:47:39;101402;;;1.17;48.02
69027;BME280;56080;47.594;19.116;2023-02-04T17:57:39;101437;;;1.08;48.13
69027;BME280;56080;47.594;19.116;2023-02-04T18:07:39;101457;;;1.08;48.91
69027;BME280;56080;47.594;19.116;2023-02-04T18:17:39;101469;;;1.05;50.89
69027;BME280;56080;47.594;19.116;2023-02-04T18:27:39;101479;;;0.97;52.45
69027;BME280;56080;47.594;19.116;2023-02-04T18:37:41;101480;;;0.86;53.93
69027;BME280;56080;47.594;19.116;2023-02-04T18:47:39;101479;;;0.72;54.72
69027;BME280;56080;47.594;19.116;2023-02-04T18:57:39;101481;;;0.80;55.05
69027;BME280;56080;47.594;19.116;2023-02-04T19:07:39;101482;;;0.54;55.19
69027;BME280;56080;47.594;19.116;2023-02-04T19:17:40;101492;;;0.56;55.17
69027;BME280;56080;47.594;19.116;2023-02-04T19:27:42;101502;;;0.52;55.79
69027;BME280;56080;47.594;19.116;2023-02-04T19:37:40;101510;;;0.50;55.91
69027;BME280;56080;47.594;19.116;2023-02-04T19:47:41;101522;;;0.42;56.30
69027;BME280;56080;47.594;19.116;2023-02-04T19:57:40;101542;;;0.46;57.08
69027;BME280;56080;47.594;19.116;2023-02-04T20:07:39;101547;;;0.25;58.96
69027;BME280;56080;47.594;19.116;2023-02-04T20:17:44;101577;;;0.19;60.36
69027;BME280;56080;47.594;19.116;2023-02-04T20:27:40;101560;;;0.11;60.82
69027;BME280;56080;47.594;19.116;2023-02-04T20:37:40;101542;;;-0.01;61.53
69027;BME280;56080;47.594;19.116;2023-02-04T20:47:40;101547;;;-0.02;61.83
69027;BME280;56080;47.594;19.116;2023-02-04T20:57:40;101563;;;-0.03;62.28
69027;BME280;56080;47.594;19.116;2023-02-04T21:07:40;101578;;;-0.07;62.82
69027;BME280;56080;47.594;19.116;2023-02-04T21:17:40;101571;;;-0.04;62.33
69027;BME280;56080;47.594;19.116;2023-02-04T21:27:40;101591;;;-0.06;61.67
69027;BME280;56080;47.594;19.116;2023-02-04T21:37:40;101583;;;-0.02;61.26
69027;BME280;56080;47.594;19.116;2023-02-04T21:57:40;101584;;;-0.16;62.75
69027;BME280;56080;47.594;19.116;2023-02-04T22:07:40;101563;;;-0.16;62.03
69027;BME280;56080;47.594;19.116;2023-02-04T22:17:40;101582;;;-0.16;63.12
69027;BME280;56080;47.594;19.116;2023-02-04T22:27:39;101582;;;-0.22;63.55
69027;BME280;56080;47.594;19.116;2023-02-04T22:37:40;101587;;;-0.26;64.14
69027;BME280;56080;47.594;19.116;2023-02-04T22:47:40;101595;;;-0.27;63.16
69027;BME280;56080;47.594;19.116;2023-02-04T22:57:39;101601;;;-0.16;62.65
69027;BME280;56080;47.594;19.116;2023-02-04T23:07:40;101612;;;-0.24;62.67
69027;BME280;56080;47.594;19.116;2023-02-04T23:17:39;101608;;;-0.18;62.14
69027;BME280;56080;47.594;19.116;2023-02-04T23:27:39;101613;;;-0.22;62.15
69027;BME280;56080;47.594;19.116;2023-02-04T23:47:39;101637;;;-0.24;61.90
69027;BME280;56080;47.594;19.116;2023-02-04T23:57:40;101631;;;-0.24;62.33
